Time;durP1;ratioP1;P1;durP2;ratioP2;P2;SDS_P1;SDS_P2;PMS_P1;PMS_P2;Temp;Humidity;BMP_temperature;BMP_pressure;BME280_temperature;BME280_humidity;BME280_pressure;Samples;Min_cycle;Max_cycle;Signal;HPM_P1;HPM_P2
2022/05/22 00:01:32;;;;;;;;;;;;;;;14.05;77.10;101951.06;5053775;28;20055;-35
2022/05/22 00:03:58;;;;;;;8.18;2.58;;;;;;;13.84;79.14;101949.66;5053064;28;19917;-35
2022/05/22 00:06:23;;;;;;;7.18;2.47;;;;;;;13.75;79.50;101934.69;5052801;28;20036;-35
2022/05/22 00:08:48;;;;;;;4.03;1.92;;;;;;;13.78;79.45;101931.53;5052932;28;20059;-36
2022/05/22 00:11:14;;;;;;;6.88;2.38;;;;;;;13.86;79.20;101938.56;5053356;28;20370;-36
2022/05/22 00:13:39;;;;;;;;;;;;;;;14.03;77.75;101931.44;5051683;28;20079;-36
2022/05/22 00:18:48;;;;;;;6.55;2.53;;;;;;;13.78;80.70;101934.25;5053100;28;20491;-36
2022/05/22 00:21:14;;;;;;;;;;;;;;;13.96;78.44;101921.69;5053452;28;20128;-36
2022/05/22 00:23:39;;;;;;;9.90;2.90;;;;;;;13.69;80.57;101930.16;5052585;28;19920;-36
2022/05/22 00:26:04;;;;;;;5.97;2.77;;;;;;;13.61;81.31;101920.41;5053337;28;20336;-36
2022/05/22 00:28:30;;;;;;;6.97;3.00;;;;;;;13.58;81.42;101915.44;5051594;28;20107;-36
2022/05/22 00:30:55;;;;;;;7.70;2.60;;;;;;;13.56;81.58;101906.66;5052619;28;20787;-36
2022/05/22 00:33:20;;;;;;;5.47;2.53;;;;;;;13.55;81.35;101918.59;5052211;28;20033;-36
2022/05/22 00:35:46;;;;;;;5.00;2.50;;;;;;;13.56;81.50;101914.81;5052873;28;20256;-36
2022/05/22 00:38:11;;;;;;;6.70;2.83;;;;;;;13.57;81.70;101912.94;5052488;28;20770;-36
2022/05/22 00:40:36;;;;;;;;;;;;;;;13.73;79.60;101919.66;5052510;28;20477;-36
2022/05/22 00:43:01;;;;;;;10.67;2.83;;;;;;;13.47;81.67;101913.47;5052422;28;20310;-36
2022/05/22 00:45:27;;;;;;;5.85;2.75;;;;;;;13.50;82.29;101913.00;5052427;28;20035;-36
2022/05/22 00:47:53;;;;;;;3.88;2.22;;;;;;;13.46;82.00;101917.22;5052120;28;20029;-36
2022/05/22 00:50:21;;;;;;;7.55;2.40;;;;;;;13.49;82.06;101918.66;5052684;28;20037;-36
2022/05/22 00:52:57;;;;;;;5.90;2.42;;;;;;;13.46;81.85;101919.94;5052296;28;20036;-36
2022/05/22 00:55:28;;;;;;;7.67;3.00;;;;;;;13.30;82.76;101905.03;5052266;28;20025;-36
2022/05/22 00:57:57;;;;;;;4.63;2.50;;;;;;;13.29;83.19;101907.97;5052305;28;20031;-36
2022/05/22 01:00:28;;;;;;;5.63;2.67;;;;;;;13.17;83.74;101901.56;5052162;28;20064;-36
2022/05/22 01:05:40;;;;;;;7.53;2.70;;;;;;;13.19;84.09;101889.44;5052226;28;20183;-36
2022/05/22 01:08:06;;;;;;;6.90;3.03;;;;;;;13.18;84.36;101898.66;5053927;28;20115;-36
2022/05/22 01:10:40;;;;;;;5.40;2.53;;;;;;;13.19;84.30;101907.63;5055920;28;20036;-36
2022/05/22 01:13:05;;;;;;;8.07;3.30;;;;;;;13.17;83.88;101909.72;5056509;28;20099;-36
2022/05/22 01:15:32;;;;;;;7.72;2.70;;;;;;;13.19;82.02;101913.06;5055614;28;20603;-36
2022/05/22 01:17:57;;;;;;;8.43;3.13;;;;;;;13.16;83.83;101914.31;5055450;28;20385;-36
2022/05/22 01:20:23;;;;;;;9.07;3.85;;;;;;;13.21;83.00;101916.38;5055313;28;20057;-36
2022/05/22 01:22:48;;;;;;;6.75;3.38;;;;;;;13.24;83.08;101926.84;5056345;28;20110;-36
2022/05/22 01:25:13;;;;;;;7.40;3.73;;;;;;;13.22;83.16;101912.63;5055498;28;20033;-36
2022/05/22 01:27:39;;;;;;;7.83;3.30;;;;;;;13.12;83.33;101903.06;5056019;28;20305;-36
2022/05/22 01:30:15;;;;;;;10.75;4.07;;;;;;;13.08;83.24;101892.91;5055390;28;20025;-36
2022/05/22 01:32:43;;;;;;;6.07;3.40;;;;;;;12.94;83.46;101878.59;5055553;28;20017;-36
2022/05/22 01:35:11;;;;;;;8.43;3.80;;;;;;;13.00;84.13;101888.56;5054961;28;20408;-36
2022/05/22 01:37:37;;;;;;;8.68;3.13;;;;;;;13.02;84.05;101891.88;5055081;28;20029;-36
2022/05/22 01:40:03;;;;;;;5.65;3.20;;;;;;;12.96;84.53;101894.66;5055148;28;20497;-36
2022/05/22 01:42:29;;;;;;;7.78;3.58;;;;;;;12.92;84.07;101890.72;5054834;28;20039;-36
2022/05/22 01:44:55;;;;;;;9.35;3.58;;;;;;;12.89;84.64;101886.56;5055057;28;20032;-36
2022/05/22 01:47:20;;;;;;;7.22;3.58;;;;;;;12.83;84.41;101885.56;5055366;28;20424;-35
2022/05/22 01:49:45;;;;;;;7.40;3.30;;;;;;;12.86;84.89;101881.56;5053805;28;20079;-36
2022/05/22 01:52:11;;;;;;;9.73;3.83;;;;;;;12.75;84.57;101857.88;5054906;28;20108;-36
2022/05/22 01:54:36;;;;;;;7.70;3.50;;;;;;;12.78;84.63;101879.13;5054975;28;20392;-36
2022/05/22 01:57:02;;;;;;;9.40;4.38;;;;;;;12.74;84.93;101888.78;5054889;28;20067;-36
2022/05/22 01:59:27;;;;;;;10.27;4.05;;;;;;;12.69;85.08;101880.44;5054760;28;20271;-36
2022/05/22 02:01:53;;;;;;;10.02;3.75;;;;;;;12.71;85.47;101879.19;5055360;28;20025;-36
2022/05/22 02:04:18;;;;;;;8.27;4.17;;;;;;;12.64;85.19;101875.69;5054753;28;20461;-36
2022/05/22 02:09:29;;;;;;;6.45;3.55;;;;;;;12.66;85.41;101880.91;5055157;28;20493;-36
2022/05/22 02:11:54;;;;;;;8.60;3.60;;;;;;;12.59;85.84;101875.50;5054651;28;20021;-36
2022/05/22 02:14:20;;;;;;;9.90;4.05;;;;;;;12.50;86.20;101858.66;5055039;28;20477;-36
2022/05/22 02:16:45;;;;;;;11.48;4.70;;;;;;;12.57;86.37;101864.03;5054859;28;20039;-36
2022/05/22 02:19:11;;;;;;;7.20;3.53;;;;;;;12.52;86.32;101853.03;5053457;28;20032;-36
2022/05/22 02:21:37;;;;;;;10.83;4.40;;;;;;;12.53;86.04;101855.50;5054409;28;20238;-36
2022/05/22 02:24:03;;;;;;;8.57;3.75;;;;;;;12.49;86.17;101864.28;5054388;28;20270;-36
2022/05/22 02:26:29;;;;;;;9.48;4.03;;;;;;;12.42;86.59;101858.09;5054337;28;20432;-36
2022/05/22 02:28:54;;;;;;;8.23;3.60;;;;;;;12.38;86.31;101857.69;5054285;28;20094;-36
2022/05/22 02:31:19;;;;;;;10.80;4.90;;;;;;;12.37;86.30;101858.75;5053958;28;20044;-36
2022/05/22 02:33:45;;;;;;;6.10;3.60;;;;;;;12.25;86.51;101842.34;5053823;28;20271;-36
2022/05/22 02:36:13;;;;;;;5.77;3.43;;;;;;;12.32;86.86;101847.72;5053829;28;20036;-36
2022/05/22 02:38:40;;;;;;;8.70;4.35;;;;;;;12.27;87.06;101825.84;5053904;28;20667;-36
2022/05/22 02:41:10;;;;;;;6.97;3.63;;;;;;;12.20;87.49;101839.47;5053806;28;20103;-36
2022/05/22 02:43:36;;;;;;;9.05;4.03;;;;;;;12.27;87.17;101834.00;5054048;28;20057;-36
2022/05/22 02:46:01;;;;;;;9.75;4.07;;;;;;;12.23;87.50;101832.75;5054684;28;20470;-36
2022/05/22 02:48:26;;;;;;;8.05;4.30;;;;;;;12.21;87.33;101824.03;5054032;28;20079;-36
2022/05/22 02:50:52;;;;;;;6.45;3.55;;;;;;;12.26;87.28;101829.63;5054211;28;20098;-36
2022/05/22 02:53:17;;;;;;;6.97;4.00;;;;;;;12.21;87.17;101840.28;5053690;28;20098;-36
2022/05/22 02:55:44;;;;;;;7.57;3.77;;;;;;;12.20;87.38;101841.31;5053578;28;20782;-36
2022/05/22 02:58:11;;;;;;;8.57;4.20;;;;;;;12.13;87.14;101833.22;5053266;28;20112;-36
2022/05/22 03:00:36;;;;;;;7.75;4.00;;;;;;;12.07;87.67;101843.06;5053999;28;20032;-36
2022/05/22 03:03:01;;;;;;;8.63;4.77;;;;;;;12.04;87.53;101845.38;5054285;28;20082;-36
2022/05/22 03:06:37;;;;;;;7.43;3.97;;;;;;;12.07;87.38;101848.50;5053420;28;20335;-36
2022/05/22 03:08:14;;;;;;;6.63;3.78;;;;;;;11.95;87.68;101852.09;5053282;28;20033;-36
2022/05/22 03:10:40;;;;;;;7.80;4.10;;;;;;;11.91;88.09;101843.56;5054203;28;20089;-36
2022/05/22 03:13:05;;;;;;;8.05;3.88;;;;;;;11.68;88.29;101808.00;5053041;28;20481;-36
2022/05/22 03:15:30;;;;;;;7.57;4.03;;;;;;;11.91;88.30;101829.16;5053339;28;20029;-36
2022/05/22 03:17:56;;;;;;;8.37;4.23;;;;;;;11.81;88.36;101835.03;5053670;28;20268;-36
2022/05/22 03:20:21;;;;;;;8.83;4.63;;;;;;;11.77;88.13;101826.50;5053309;28;20075;-36
2022/05/22 03:22:46;;;;;;;8.27;3.77;;;;;;;11.73;88.55;101816.31;5053224;28;20033;-36
2022/05/22 03:25:12;;;;;;;6.60;4.03;;;;;;;11.75;88.24;101825.88;5053154;28;20735;-36
2022/05/22 03:27:37;;;;;;;10.73;4.10;;;;;;;11.59;88.37;101804.69;5053438;28;20037;-36
2022/05/22 03:30:04;;;;;;;7.10;3.93;;;;;;;11.67;89.13;101818.00;5053220;28;20072;-36
2022/05/22 03:32:31;;;;;;;6.00;4.10;;;;;;;11.65;89.09;101813.81;5053528;28;20029;-36
2022/05/22 03:34:56;;;;;;;9.32;4.05;;;;;;;11.61;88.96;101816.13;5053432;28;20053;-36
2022/05/22 03:37:24;;;;;;;8.32;4.40;;;;;;;11.59;89.01;101816.34;5052976;28;20488;-35
2022/05/22 03:39:50;;;;;;;7.90;4.05;;;;;;;11.56;88.75;101821.34;5052846;28;20029;-36
2022/05/22 03:42:15;;;;;;;8.10;4.13;;;;;;;11.54;88.85;101823.47;5053301;28;20099;-36
2022/05/22 03:44:41;;;;;;;7.30;3.87;;;;;;;11.45;89.38;101803.91;5052877;28;20037;-36
2022/05/22 03:47:06;;;;;;;7.65;3.75;;;;;;;11.40;88.79;101795.56;5053021;28;20123;-36
2022/05/22 03:49:32;;;;;;;6.93;3.90;;;;;;;11.44;88.94;101807.66;5052808;28;20036;-36
2022/05/22 03:51:58;;;;;;;8.73;4.13;;;;;;;11.40;89.73;101797.47;5053876;28;20033;-36
2022/05/22 03:54:23;;;;;;;8.07;3.93;;;;;;;11.46;89.71;101800.13;5053056;28;20036;-36
2022/05/22 03:56:48;;;;;;;6.67;3.90;;;;;;;11.44;89.46;101809.53;5053292;28;20306;-36
2022/05/22 03:59:14;;;;;;;5.03;3.80;;;;;;;11.40;89.39;101798.28;5051233;28;20118;-36
2022/05/22 04:01:39;;;;;;;5.97;3.93;;;;;;;11.35;89.48;101806.22;5052995;28;20053;-36
2022/05/22 04:04:05;;;;;;;6.10;3.63;;;;;;;11.39;89.88;101806.63;5052828;28;20655;-36
2022/05/22 04:06:30;;;;;;;6.28;4.10;;;;;;;11.36;89.86;101821.41;5053045;28;20025;-36
2022/05/22 04:08:55;;;;;;;7.90;4.28;;;;;;;11.32;89.56;101814.75;5052641;28;20458;-36
2022/05/22 04:11:21;;;;;;;9.43;4.20;;;;;;;11.31;90.09;101811.22;5052713;28;20032;-36
2022/05/22 04:13:47;;;;;;;5.60;3.70;;;;;;;11.28;90.53;101811.66;5052303;28;20271;-36
2022/05/22 04:16:12;;;;;;;5.38;4.55;;;;;;;11.28;90.16;101813.53;5052948;28;20024;-36
2022/05/22 04:18:38;;;;;;;10.40;4.68;;;;;;;11.26;91.05;101805.59;5053036;28;20481;-36
2022/05/22 04:21:04;;;;;;;9.73;4.20;;;;;;;11.28;91.01;101806.25;5052725;28;20489;-36
2022/05/22 04:26:14;;;;;;;7.75;4.40;;;;;;;11.25;90.25;101785.00;5052867;28;20296;-36
2022/05/22 04:28:40;;;;;;;8.82;4.50;;;;;;;11.32;90.62;101803.94;5052499;28;20040;-36
2022/05/22 04:31:05;;;;;;;9.93;4.45;;;;;;;11.39;90.50;101799.34;5052758;28;20044;-36
2022/05/22 04:33:32;;;;;;;6.85;4.65;;;;;;;11.42;90.86;101798.94;5052338;28;20032;-36
2022/05/22 04:35:57;;;;;;;;;;;;;;;11.65;89.15;101800.28;5052895;28;20035;-36
2022/05/22 04:38:23;;;;;;;8.43;4.38;;;;;;;11.44;90.80;101790.56;5052143;28;20003;-36
2022/05/22 04:41:02;;;;;;;5.53;4.65;;;;;;;11.46;91.17;101799.31;5052052;28;20449;-36
2022/05/22 04:43:30;;;;;;;9.10;5.10;;;;;;;11.39;91.44;101788.50;5055127;28;20043;-36
2022/05/22 04:45:56;;;;;;;7.43;5.13;;;;;;;11.51;91.26;101786.78;5056300;28;20525;-36
2022/05/22 04:48:24;;;;;;;7.53;5.13;;;;;;;11.65;90.96;101803.00;5055808;28;20032;-36
2022/05/22 04:50:51;;;;;;;10.18;5.75;;;;;;;11.70;91.10;101803.19;5056608;28;20033;-36
2022/05/22 04:53:19;;;;;;;7.38;4.60;;;;;;;11.75;91.31;101801.47;5054664;28;20369;-36
2022/05/22 04:55:45;;;;;;;9.68;5.60;;;;;;;11.74;90.95;101794.41;5056046;28;20052;-36
2022/05/22 04:58:12;;;;;;;8.60;4.97;;;;;;;11.81;90.77;101797.09;5055980;28;20461;-36
2022/05/22 05:00:38;;;;;;;7.28;4.78;;;;;;;11.83;89.45;101792.31;5056129;28;20029;-36
2022/05/22 05:03:03;;;;;;;;;;;;;;;12.02;88.91;101790.56;5055963;28;20029;-36
2022/05/22 05:05:29;;;;;;;7.65;5.15;;;;;;;11.91;90.42;101789.38;5055559;28;20047;-36
2022/05/22 05:07:55;;;;;;;8.93;5.20;;;;;;;11.93;90.08;101789.97;5055799;28;20043;-36
2022/05/22 05:10:21;;;;;;;7.95;5.28;;;;;;;11.93;90.51;101772.88;5056498;28;20029;-36
2022/05/22 05:12:47;;;;;;;8.27;5.22;;;;;;;11.85;90.66;101750.38;5056057;28;20070;-36
2022/05/22 05:15:15;;;;;;;8.57;4.95;;;;;;;12.06;90.25;101783.66;5055438;28;20021;-36
2022/05/22 05:17:42;;;;;;;10.70;5.55;;;;;;;12.06;90.11;101783.66;5055340;28;20025;-36
2022/05/22 05:20:09;;;;;;;8.80;5.50;;;;;;;12.02;90.46;101790.56;5055373;28;21787;-36
2022/05/22 05:22:34;;;;;;;9.05;5.45;;;;;;;11.90;91.00;101763.28;5056192;28;20056;-36
2022/05/22 05:25:00;;;;;;;10.45;5.68;;;;;;;12.02;90.63;101779.72;5055470;28;20385;-36
2022/05/22 05:27:26;;;;;;;7.03;5.40;;;;;;;12.03;90.68;101789.50;5056233;28;20029;-36
2022/05/22 05:29:51;;;;;;;7.30;5.40;;;;;;;12.06;90.43;101784.47;5055344;28;20389;-36
2022/05/22 05:32:18;;;;;;;8.63;5.40;;;;;;;12.16;90.67;101791.31;5055281;28;20029;-36
2022/05/22 05:34:43;;;;;;;8.25;5.97;;;;;;;12.14;89.83;101783.38;5055510;28;20155;-36
2022/05/22 05:37:09;;;;;;;9.00;6.07;;;;;;;12.22;89.53;101798.56;5055513;28;20498;-36
2022/05/22 05:39:35;;;;;;;10.30;6.00;;;;;;;12.20;89.92;101798.78;5054980;28;20354;-36
2022/05/22 05:42:00;;;;;;;;;;;;;;;12.36;89.23;101805.56;5055717;28;20424;-36
2022/05/22 05:44:25;;;;;;;7.15;5.47;;;;;;;12.19;89.39;101793.56;5055054;28;19908;-36
2022/05/22 05:46:51;;;;;;;11.63;6.83;;;;;;;12.13;90.32;101797.16;5055714;28;20112;-36
2022/05/22 05:49:16;;;;;;;10.00;5.93;;;;;;;12.04;90.55;101774.88;5055010;28;20041;-36
2022/05/22 05:51:41;;;;;;;7.97;6.15;;;;;;;12.31;90.75;101800.78;5054991;28;20035;-36
2022/05/22 05:54:07;;;;;;;8.03;5.80;;;;;;;12.41;90.75;101791.34;5054635;28;20032;-36
2022/05/22 05:56:37;;;;;;;9.27;6.18;;;;;;;12.38;89.89;101793.41;5055145;28;20107;-36
2022/05/22 05:59:02;;;;;;;12.02;6.45;;;;;;;12.50;90.23;101795.44;5054634;28;20035;-36
2022/05/22 06:01:27;;;;;;;9.02;6.45;;;;;;;12.46;89.12;101780.66;5054873;28;20033;-36
2022/05/22 06:03:53;;;;;;;10.40;6.80;;;;;;;12.68;88.82;101794.66;5054519;28;20059;-36
2022/05/22 06:06:19;;;;;;;9.43;6.30;;;;;;;12.74;88.64;101793.78;5055107;28;20046;-36
2022/05/22 06:08:45;;;;;;;9.60;6.53;;;;;;;12.92;87.92;101796.53;5054513;28;20025;-36
2022/05/22 06:11:11;;;;;;;8.93;6.55;;;;;;;13.05;87.08;101788.25;5054766;28;20311;-36
2022/05/22 06:13:36;;;;;;;10.15;6.30;;;;;;;13.22;86.88;101793.94;5054440;28;20033;-36
2022/05/22 06:16:04;;;;;;;10.40;6.37;;;;;;;13.29;85.86;101789.28;5054869;28;20044;-36
2022/05/22 06:18:29;;;;;;;11.40;6.55;;;;;;;13.44;86.66;101788.91;5054361;28;20278;-36
2022/05/22 06:20:55;;;;;;;11.07;5.88;;;;;;;13.46;85.14;101770.47;5054719;28;20048;-36
2022/05/22 06:23:20;;;;;;;12.93;6.20;;;;;;;13.60;84.88;101769.25;5054284;28;20033;-36
2022/05/22 06:25:46;;;;;;;7.43;5.07;;;;;;;13.77;84.28;101777.63;5055386;28;20025;-36
2022/05/22 06:28:12;;;;;;;8.48;5.28;;;;;;;13.91;84.25;101783.72;5054158;28;20632;-36
2022/05/22 06:30:37;;;;;;;;;;;;;;;13.98;81.52;101787.16;5054693;28;20124;-36
2022/05/22 06:33:08;;;;;;;9.80;4.93;;;;;;;14.03;81.76;101789.19;5054801;28;20313;-36
2022/05/22 06:35:33;;;;;;;10.73;5.75;;;;;;;14.13;81.62;101795.75;5054237;28;20268;-35
2022/05/22 06:37:59;;;;;;;;;;;;;;;14.27;82.40;101790.94;5054420;28;20021;-36
2022/05/22 06:40:24;;;;;;;9.97;5.17;;;;;;;14.35;80.85;101795.22;5054131;28;20357;-36
2022/05/22 06:42:49;;;;;;;;;;;;;;;14.52;80.80;101798.13;5054633;28;20040;-36
2022/05/22 06:45:24;;;;;;;8.67;5.40;;;;;;;14.49;80.08;101788.50;5054324;28;19908;-36
2022/05/22 06:47:51;;;;;;;9.38;4.80;;;;;;;14.56;78.71;101800.13;5054206;28;20028;-36
2022/05/22 06:50:24;;;;;;;11.55;5.78;;;;;;;14.63;79.32;101805.47;5053792;28;20389;-36
2022/05/22 06:52:51;;;;;;;8.02;4.80;;;;;;;14.73;78.99;101799.44;5053792;28;20028;-36
2022/05/22 06:55:16;;;;;;;12.50;6.15;;;;;;;14.63;77.89;101794.56;5053762;28;20447;-36
2022/05/22 06:57:42;;;;;;;;;;;;;;;14.91;79.10;101807.50;5053875;28;20064;-36
2022/05/22 07:00:13;;;;;;;10.30;5.85;;;;;;;14.90;78.71;101795.78;5054009;28;19916;-36
2022/05/22 07:02:39;;;;;;;11.82;5.78;;;;;;;14.91;79.71;101797.44;5053584;28;20037;-36
2022/05/22 07:05:05;;;;;;;7.43;5.18;;;;;;;14.97;78.42;101800.28;5053056;28;20039;-36
2022/05/22 07:07:31;;;;;;;8.30;5.35;;;;;;;14.96;78.18;101788.56;5054176;28;20045;-36
2022/05/22 07:09:56;;;;;;;;;;;;;;;15.06;79.00;101788.78;5053922;28;20033;-36
2022/05/22 07:12:22;;;;;;;9.27;5.10;;;;;;;14.82;79.43;101773.53;5053203;28;19954;-36
2022/05/22 07:14:50;;;;;;;;;;;;;;;15.02;79.34;101792.22;5053435;28;20348;-36
2022/05/22 07:17:21;;;;;;;11.40;5.55;;;;;;;15.06;78.00;101788.78;5053584;28;19909;-36
2022/05/22 07:19:47;;;;;;;9.35;4.80;;;;;;;15.19;77.11;101795.91;5052909;28;20021;-36
2022/05/22 07:22:12;;;;;;;12.85;5.78;;;;;;;15.06;74.64;101782.53;5053980;28;20048;-36
2022/05/22 07:24:37;;;;;;;7.33;4.87;;;;;;;15.29;75.78;101795.28;5053269;28;20032;-36
2022/05/22 07:27:03;;;;;;;9.50;5.05;;;;;;;15.49;76.63;101792.19;5053386;28;20255;-36
2022/05/22 07:29:29;;;;;;;8.10;5.00;;;;;;;15.64;74.42;101778.88;5053762;28;20024;-36
2022/05/22 07:31:56;;;;;;;;;;;;;;;15.83;76.34;101783.09;5053533;28;20033;-36
2022/05/22 07:34:22;;;;;;;;;;;;;;;15.94;76.71;101770.47;5053680;28;19912;-36
2022/05/22 07:36:49;;;;;;;8.25;4.47;;;;;;;15.90;72.51;101769.28;5053771;28;20249;-36
2022/05/22 07:39:14;;;;;;;9.65;4.93;;;;;;;15.90;73.00;101766.56;5053067;28;20380;-36
2022/05/22 07:41:39;;;;;;;9.07;5.17;;;;;;;16.03;73.03;101779.09;5053254;28;20114;-36
2022/05/22 07:44:05;;;;;;;9.53;5.30;;;;;;;16.06;72.97;101775.88;5052680;28;20272;-36
2022/05/22 07:46:30;;;;;;;12.73;6.18;;;;;;;16.10;74.04;101769.66;5053394;28;20276;-36
2022/05/22 07:48:56;;;;;;;;;;;;;;;16.26;74.06;101784.44;5051745;28;20056;-36
2022/05/22 07:51:21;;;;;;;8.00;4.93;;;;;;;16.26;72.18;101778.97;5052867;28;19913;-36
2022/05/22 07:53:46;;;;;;;;;;;;;;;16.42;73.92;101775.41;5053245;28;20024;-36
2022/05/22 07:56:12;;;;;;;12.70;5.00;;;;;;;16.43;70.62;101771.59;5053040;28;19916;-36
2022/05/22 07:58:39;;;;;;;9.02;4.30;;;;;;;16.43;67.78;101768.06;5052704;28;20367;-36
2022/05/22 08:01:05;;;;;;;9.82;4.65;;;;;;;16.56;68.50;101769.63;5053438;28;20094;-36
2022/05/22 08:03:30;;;;;;;7.65;3.63;;;;;;;16.58;65.41;101768.31;5052751;28;20033;-36
2022/05/22 08:05:56;;;;;;;10.50;4.03;;;;;;;16.60;66.55;101763.44;5053252;28;20033;-36
2022/05/22 08:08:23;;;;;;;7.80;3.40;;;;;;;16.67;64.91;101752.34;5052716;28;20029;-36
2022/05/22 08:10:49;;;;;;;7.68;3.55;;;;;;;16.70;65.68;101746.38;5051321;28;20381;-36
2022/05/22 08:13:14;;;;;;;;;;;;;;;16.84;66.40;101755.09;5052988;28;20028;-36
2022/05/22 08:15:41;;;;;;;7.28;2.42;;;;;;;16.82;63.75;101751.78;5052996;28;20322;-36
2022/05/22 08:18:08;;;;;;;7.47;2.75;;;;;;;16.82;61.74;101754.50;5055187;28;20450;-36
2022/05/22 08:20:36;;;;;;;7.10;2.80;;;;;;;16.80;61.86;101724.72;5056948;28;20057;-36
2022/05/22 08:23:06;;;;;;;5.55;2.75;;;;;;;17.03;63.56;101731.88;5057352;28;20057;-36
2022/05/22 08:25:32;;;;;;;5.35;3.08;;;;;;;17.25;62.90;101723.69;5056979;28;20037;-36
2022/05/22 08:27:57;;;;;;;;;;;;;;;17.46;64.97;101731.03;5057487;28;20043;-36
2022/05/22 08:30:26;;;;;;;9.07;4.35;;;;;;;17.34;62.23;101722.16;5057161;28;19913;-36
2022/05/22 08:32:52;;;;;;;10.77;4.22;;;;;;;17.41;61.88;101716.47;5056428;28;20029;-36
2022/05/22 08:35:20;;;;;;;;;;;;;;;17.64;64.65;101718.94;5056795;28;20526;-36
2022/05/22 08:37:46;;;;;;;10.07;3.92;;;;;;;17.63;61.83;101703.63;5056126;28;19913;-36
2022/05/22 08:40:13;;;;;;;;;;;;;;;17.82;62.46;101703.31;5056678;28;20025;-36
2022/05/22 08:42:41;;;;;;;10.13;4.10;;;;;;;17.85;61.97;101697.28;5057141;28;19919;-36
2022/05/22 08:45:23;;;;;;;9.60;4.65;;;;;;;17.75;62.59;101690.63;5056312;28;20147;-36
2022/05/22 08:48:14;;;;;;;6.53;3.58;;;;;;;17.66;59.58;101681.19;5056705;28;20033;-36
2022/05/22 08:50:41;;;;;;;6.53;3.70;;;;;;;17.48;59.86;101690.59;5056219;28;20047;-36
2022/05/22 08:53:15;;;;;;;6.93;3.78;;;;;;;17.71;60.87;101686.75;5056396;28;20051;-36
2022/05/22 09:01:33;;;;;;;6.65;2.63;;;;;;;18.24;57.96;101676.84;5056279;28;20344;-36
2022/05/22 09:04:11;;;;;;;8.15;3.10;;;;;;;18.25;56.19;101673.03;5055921;28;20031;-36
2022/05/22 09:06:48;;;;;;;10.35;3.88;;;;;;;18.10;56.94;101681.09;5055976;28;20508;-36
2022/05/22 09:09:14;;;;;;;8.98;3.85;;;;;;;17.92;57.37;101660.44;5056136;28;20036;-36
2022/05/22 09:11:58;;;;;;;;;;;;;;;18.14;59.59;101668.53;5055917;28;20033;-36
2022/05/22 09:14:30;;;;;;;7.38;3.97;;;;;;;17.87;57.96;101670.50;5060309;28;20062;-36
2022/05/22 09:17:07;;;;;;;7.82;3.42;;;;;;;18.04;59.13;101663.00;5059588;28;20029;-36
2022/05/22 09:19:54;;;;;;;8.07;3.90;;;;;;;18.17;55.87;101665.28;5058440;28;20383;-36
2022/05/22 09:22:26;;;;;;;;;;;;;;;18.37;57.10;101663.78;5054833;28;20105;-36
2022/05/22 09:24:58;;;;;;;9.38;4.18;;;;;;;18.46;56.86;101662.22;5061962;28;20373;-36
2022/05/22 09:27:35;;;;;;;5.95;3.78;;;;;;;18.35;54.89;101653.13;5064848;28;20064;-36
2022/05/22 09:30:13;;;;;;;8.40;4.25;;;;;;;18.51;56.32;101656.78;5073996;28;20099;-36
2022/05/22 09:32:49;;;;;;;54.88;7.18;;;;;;;18.81;58.44;101653.41;5074628;28;20039;-36
2022/05/22 09:35:25;;;;;;;9.65;4.10;;;;;;;19.01;57.46;101649.94;5074137;28;20027;-36
2022/05/22 09:38:05;;;;;;;12.25;4.70;;;;;;;18.96;56.50;101638.94;5074905;28;20426;-36
2022/05/22 09:40:48;;;;;;;9.57;5.13;;;;;;;18.82;57.88;101641.34;5074195;28;20056;-36
2022/05/22 09:43:38;;;;;;;9.07;4.38;;;;;;;18.85;58.88;101635.34;5074251;28;20037;-36
2022/05/22 09:46:16;;;;;;;8.38;4.95;;;;;;;19.13;55.87;101645.06;5073690;28;20141;-36
2022/05/22 09:48:41;;;;;;;9.73;4.13;;;;;;;19.37;55.04;101639.06;5074243;28;20078;-36
2022/05/22 09:51:18;;;;;;;;;;;;;;;19.70;56.08;101632.31;5074467;28;20033;-36
2022/05/22 09:53:57;;;;;;;9.93;4.10;;;;;;;19.77;54.70;101628.22;5074645;28;19912;-36
2022/05/22 09:56:44;;;;;;;8.90;4.70;;;;;;;19.58;53.37;101618.00;5074564;28;20278;-36
2022/05/22 09:59:46;;;;;;;9.95;4.45;;;;;;;19.51;53.03;101623.75;5073787;28;20111;-36
2022/05/22 10:02:23;;;;;;;8.90;4.35;;;;;;;19.77;53.40;101611.75;5073912;28;20032;-36
2022/05/22 10:05:24;;;;;;;6.72;3.72;;;;;;;20.18;52.29;101632.84;5074536;28;20476;-36
2022/05/22 10:07:52;;;;;;;8.32;4.10;;;;;;;20.21;48.83;101638.63;5074210;28;20067;-36
2022/05/22 10:10:25;;;;;;;7.15;4.07;;;;;;;20.24;51.82;101643.56;5073708;28;20040;-36
2022/05/22 10:13:07;;;;;;;10.75;4.00;;;;;;;20.21;50.04;101619.41;5073682;28;20033;-36
2022/05/22 10:15:59;;;;;;;6.80;3.90;;;;;;;20.39;50.97;101639.97;5073614;28;20036;-36
2022/05/22 10:18:48;;;;;;;8.65;4.07;;;;;;;20.51;50.50;101634.22;5073834;28;20028;-36
2022/05/22 10:21:25;;;;;;;7.53;3.30;;;;;;;20.65;47.97;101610.53;5036292;28;1080450;-36
2022/05/22 10:24:21;;;;;;;8.50;3.72;;;;;;;20.88;48.37;101611.81;5074749;28;20043;-36
2022/05/22 10:27:05;;;;;;;7.15;3.83;;;;;;;20.79;46.91;101608.84;5012823;28;20081;-36
2022/05/22 10:29:45;;;;;;;8.73;4.07;;;;;;;20.78;47.39;101620.09;5012472;28;20137;-36
2022/05/22 10:32:28;;;;;;;9.90;3.53;;;;;;;20.92;50.89;101607.41;5012993;28;20052;-36
2022/05/22 10:35:04;;;;;;;7.70;3.80;;;;;;;20.51;49.28;101610.31;5012300;28;20029;-36
2022/05/22 10:37:42;;;;;;;8.10;3.97;;;;;;;20.19;48.58;101602.38;5012471;28;20042;-36
2022/05/22 10:40:14;;;;;;;7.43;3.67;;;;;;;20.03;50.07;101596.09;5011857;28;20395;-36
2022/05/22 10:42:45;;;;;;;9.77;4.65;;;;;;;19.70;50.77;101589.22;5012189;28;20065;-36
2022/05/22 10:45:21;;;;;;;9.68;4.40;;;;;;;19.58;50.96;101599.63;5012295;28;20155;-36
2022/05/22 10:47:46;;;;;;;10.60;4.72;;;;;;;19.93;49.28;101593.34;5012228;28;20062;-36
2022/05/22 10:50:14;;;;;;;7.65;3.95;;;;;;;20.19;49.43;101579.59;5011869;28;20038;-36
2022/05/22 10:52:40;;;;;;;7.43;4.22;;;;;;;20.23;48.30;101577.94;5012836;28;20041;-36
2022/05/22 10:55:24;;;;;;;7.43;3.88;;;;;;;20.61;50.57;101567.41;5012405;28;20054;-36
2022/05/22 10:57:55;;;;;;;8.38;3.60;;;;;;;20.57;47.46;101564.41;5012226;28;20042;-36
2022/05/22 11:00:20;;;;;;;8.25;3.90;;;;;;;20.85;50.20;101554.66;5012106;28;20072;-36
2022/05/22 11:02:46;;;;;;;10.40;4.20;;;;;;;20.78;51.75;101560.44;5017179;28;20529;-37
2022/05/22 11:05:18;;;;;;;9.45;4.70;;;;;;;20.54;48.12;101556.72;5073701;28;20028;-36
2022/05/22 11:07:51;;;;;;;7.82;4.15;;;;;;;21.00;49.24;101540.00;5073991;28;20571;-36
2022/05/22 11:10:25;;;;;;;7.18;3.70;;;;;;;21.39;48.06;101544.72;5073835;28;20487;-36
2022/05/22 11:13:00;;;;;;;6.78;4.00;;;;;;;21.66;47.43;101552.47;5073811;28;20107;-36
2022/05/22 11:15:29;;;;;;;5.18;3.50;;;;;;;21.95;46.18;101544.22;5074053;28;20108;-36
2022/05/22 11:18:04;;;;;;;7.93;3.63;;;;;;;22.13;48.23;101551.81;5073679;28;20052;-36
2022/05/22 11:20:30;;;;;;;8.90;3.97;;;;;;;22.15;45.00;101529.47;5073246;28;20094;-36
2022/05/22 11:23:03;;;;;;;8.10;3.75;;;;;;;22.39;45.88;101532.22;5073543;28;20035;-36
2022/05/22 11:25:29;;;;;;;7.53;3.88;;;;;;;22.49;44.81;101538.44;5073459;28;20372;-36
2022/05/22 11:28:13;;;;;;;8.00;4.18;;;;;;;22.86;45.77;101532.16;5073943;28;20163;-36
2022/05/22 11:30:56;;;;;;;8.85;4.32;;;;;;;22.96;44.77;101519.38;5073186;28;20039;-36
2022/05/22 11:33:33;;;;;;;7.72;3.58;;;;;;;23.28;45.09;101518.63;5073821;28;20101;-37
2022/05/22 11:36:17;;;;;;;6.53;3.35;;;;;;;23.41;44.64;101520.59;5073817;28;20191;-37
2022/05/22 11:38:54;;;;;;;7.22;3.83;;;;;;;23.27;44.13;101505.94;5073130;28;20362;-36
2022/05/22 11:41:31;;;;;;;6.43;3.22;;;;;;;23.23;43.06;101505.72;5071131;28;20072;-37
2022/05/22 11:44:19;;;;;;;9.80;3.67;;;;;;;23.33;43.64;101497.28;5072893;28;20032;-37
2022/05/22 11:46:47;;;;;;;9.35;3.70;;;;;;;23.24;44.03;101487.25;5073727;28;20423;-36
2022/05/22 11:49:31;;;;;;;7.38;4.07;;;;;;;23.12;44.63;101479.41;5072938;28;20024;-37
2022/05/22 11:52:13;;;;;;;5.43;3.17;;;;;;;23.38;44.15;101486.16;5073181;28;20025;-36
2022/05/22 11:54:47;;;;;;;8.73;4.18;;;;;;;23.29;43.17;101487.97;5072740;28;20420;-36